Catàleg de serveis del Meteocat
Campanya meteocatpedra

Dades de l'estació automàtica l'Ametlla de Mar

?
?
Resum diari 22:00 TU
Dades diàries de l'estació meteorològica
Temperatura mitjana 10.9 °C
Temperatura màxima 14.3 °C 15:16 TU
Temperatura mínima 7.5 °C 22:00 TU
Humitat relativa mitjana 78%
Precipitació acumulada 7.0 mm
Ratxa màxima del vent (2 m) 28.4 km/h - 291º 15:52 TU
Irradiació solar global 7.7 MJ/m2

El tram horari està expressat en Temps Universal (TU). Cal sumar una hora en horari d'hivern i dues en horari d'estiu per passar a l'hora oficial.

l'Ametlla de Mar

Metadades estació meteorol´gica
Municipi L'Ametlla de Mar
Comarca Baix Ebre
Altitud 93 m
Data alta 29.08.1995
Estat actual Operativa
Dades de període
Període
TU
TM
°C
TX
°C
TN
°C
HRM
%
PPT
mm
VVM (2 m)
km/h
DVM (2 m)
graus
VVX (2 m)
km/h
RS
W/m2
00:00 - 00:30 12.4 12.7 12.3 58 0.0 3.2 290 15.8 0
00:30 - 01:00 11.7 12.2 11.0 61 0.0 1.8 275 9.4 0
01:00 - 01:30 11.0 11.3 10.6 64 0.0 2.2 280 7.9 0
01:30 - 02:00 10.6 10.7 10.6 66 0.0 2.2 271 6.8 0
02:00 - 02:30 10.0 10.6 9.8 70 0.0 1.8 238 4.7 0
02:30 - 03:00 10.4 10.6 10.0 69 0.0 1.1 292 5.0 0
03:00 - 03:30 10.2 10.2 10.1 71 0.0 1.1 265 4.0 0
03:30 - 04:00 10.6 11.2 10.3 69 0.0 1.4 284 5.8 0
04:00 - 04:30 11.3 11.5 11.1 66 0.0 1.4 311 6.5 0
04:30 - 05:00 11.1 11.3 10.9 68 0.0 2.2 274 7.2 0
05:00 - 05:30 10.3 10.9 9.7 79 0.2 2.2 329 6.5 0
05:30 - 06:00 9.4 9.6 9.2 89 0.1 1.4 290 4.7 0
06:00 - 06:30 9.1 9.2 9.0 93 0.3 1.8 279 5.8 0
06:30 - 07:00 9.2 9.3 9.1 94 0.2 2.2 313 8.3 1
07:00 - 07:30 9.3 9.3 9.2 95 0.4 2.5 270 6.8 7
07:30 - 08:00 9.2 9.2 9.2 96 1.0 2.9 268 8.6 12
08:00 - 08:30 9.3 9.4 9.2 97 0.4 1.8 231 6.5 21
08:30 - 09:00 9.3 9.4 9.2 97 1.7 1.8 272 5.8 28
09:00 - 09:30 9.4 9.6 9.4 98 1.8 2.9 292 10.4 54
09:30 - 10:00 9.6 9.7 9.6 98 0.7 4.0 317 14.0 85
10:00 - 10:30 9.9 10.0 9.7 97 0.1 5.4 328 15.5 160
10:30 - 11:00 10.3 10.6 10.1 96 0.1 5.4 320 21.2 236
11:00 - 11:30 11.5 12.2 10.6 89 0.0 6.5 318 19.1 569
11:30 - 12:00 12.2 12.5 11.8 83 0.0 7.9 324 24.1 486
12:00 - 12:30 12.6 12.8 12.5 80 0.0 6.8 319 23.0 477
12:30 - 13:00 12.5 13.1 12.2 78 0.0 6.5 314 18.0 353
13:00 - 13:30 13.1 13.4 12.8 75 0.0 7.6 323 25.2 460
13:30 - 14:00 13.3 13.5 13.1 74 0.0 7.9 320 21.6 408
14:00 - 14:30 13.6 13.8 13.5 74 0.0 7.9 324 21.6 345
14:30 - 15:00 14.0 14.2 13.8 74 0.0 5.8 316 20.9 275
15:00 - 15:30 14.2 14.3 14.0 70 0.0 7.2 311 23.0 169
15:30 - 16:00 14.2 14.3 14.0 65 0.0 7.9 309 28.4 110
16:00 - 16:30 13.8 14.1 13.6 63 0.0 6.8 306 20.5 39
16:30 - 17:00 13.4 13.8 13.2 62 0.0 6.1 303 20.5 4
17:00 - 17:30 13.1 13.3 12.9 62 0.0 5.0 301 18.7 0
17:30 - 18:00 12.7 13.0 12.4 63 0.0 4.3 299 15.1 0
18:00 - 18:30 12.5 13.0 11.8 63 0.0 2.5 308 17.3 0
18:30 - 19:00 11.1 11.8 10.6 70 0.0 1.4 227 6.5 0
19:00 - 19:30 10.2 10.6 9.8 75 0.0 1.1 226 6.1 0
19:30 - 20:00 9.9 10.3 9.0 76 0.0 0.7 218 3.6 0
20:00 - 20:30 8.3 8.9 8.0 85 0.0 0.4 320 2.5 0
20:30 - 21:00 8.6 8.9 8.0 82 0.0 1.1 274 6.5 0
21:00 - 21:30 8.4 8.6 8.0 82 0.0 1.1 323 4.0 0
21:30 - 22:00 7.7 7.9 7.5 86 0.0 1.1 309 5.0 0
22:00 - 22:30 8.0 8.3 7.5 85 0.0 1.8 328 6.1 0
22:30 - 23:00 (s/d) (s/d) (s/d) (s/d) (s/d) (s/d) (s/d) (s/d) (s/d)

Les dades en taronja només han passat un control de qualitat automàtic. Resta pendent la seva validació definitiva.